Time;durP1;ratioP1;P1;durP2;ratioP2;P2;SDS_P1;SDS_P2;PMS_P1;PMS_P2;Temp;Humidity;BMP_temperature;BMP_pressure;BME280_temperature;BME280_humidity;BME280_pressure;Samples;Min_cycle;Max_cycle;Signal;HPM_P1;HPM_P2
2021/11/04 00:00:27;;;;;;;2.10;2.00;;;6.50;99.90;;;;;;5038512;28;20223;-80
2021/11/04 00:02:54;;;;;;;1.67;1.67;;;6.50;99.90;;;;;;5041960;28;20225;-78
2021/11/04 00:05:22;;;;;;;1.90;1.80;;;6.50;99.90;;;;;;5039229;28;20240;-77
2021/11/04 00:07:51;;;;;;;1.50;1.50;;;6.50;99.90;;;;;;5039928;28;20241;-78
2021/11/04 00:10:20;;;;;;;1.85;1.77;;;6.50;99.90;;;;;;5037260;28;20254;-79
2021/11/04 00:12:48;;;;;;;1.90;1.80;;;6.50;99.90;;;;;;5046157;28;20218;-79
2021/11/04 00:15:16;;;;;;;1.88;1.77;;;6.60;99.90;;;;;;5038149;28;20233;-79
2021/11/04 00:17:43;;;;;;;1.50;1.50;;;6.60;99.90;;;;;;5039859;28;20218;-81
2021/11/04 00:20:12;;;;;;;2.05;1.95;;;6.60;99.90;;;;;;5040883;28;20226;-80
2021/11/04 00:22:39;;;;;;;2.20;2.10;;;6.70;99.90;;;;;;5041166;28;20214;-79
2021/11/04 00:25:08;;;;;;;2.25;2.15;;;6.60;99.90;;;;;;5042050;28;20233;-81
2021/11/04 00:27:35;;;;;;;2.03;1.92;;;6.60;99.90;;;;;;5042464;28;20712;-79
2021/11/04 00:30:04;;;;;;;2.00;1.90;;;6.60;99.90;;;;;;5041980;28;20589;-80
2021/11/04 00:32:31;;;;;;;1.83;1.73;;;6.60;99.90;;;;;;5040341;28;22901;-80
2021/11/04 00:34:58;;;;;;;2.00;1.90;;;6.60;99.90;;;;;;5041270;28;20235;-82
2021/11/04 00:37:25;;;;;;;1.95;1.85;;;6.60;99.90;;;;;;5040277;28;20231;-80
2021/11/04 00:39:52;;;;;;;2.10;2.00;;;6.70;99.90;;;;;;5038370;28;20232;-80
2021/11/04 00:42:19;;;;;;;2.00;1.90;;;6.70;99.90;;;;;;5041349;28;20242;-81
2021/11/04 00:44:47;;;;;;;1.92;1.83;;;6.70;99.90;;;;;;5037777;28;20720;-82
2021/11/04 00:47:15;;;;;;;2.00;1.90;;;6.80;99.90;;;;;;5043172;28;20218;-79
2021/11/04 00:49:42;;;;;;;2.00;1.90;;;6.70;99.90;;;;;;5038403;28;20227;-80
2021/11/04 00:52:09;;;;;;;1.75;1.73;;;6.70;99.90;;;;;;5041064;28;20235;-79
2021/11/04 00:54:37;;;;;;;1.90;1.80;;;6.80;99.90;;;;;;5039159;28;20235;-80
2021/11/04 00:57:04;;;;;;;1.70;1.67;;;6.80;99.90;;;;;;5043623;28;20222;-81
2021/11/04 00:59:31;;;;;;;2.17;2.08;;;6.80;99.90;;;;;;5039900;28;20234;-80
2021/11/04 01:01:58;;;;;;;1.92;1.83;;;6.80;99.90;;;;;;5040779;28;20239;-79
2021/11/04 01:04:27;;;;;;;1.73;1.63;;;6.80;99.90;;;;;;5041177;28;20218;-80
2021/11/04 01:06:54;;;;;;;1.50;1.50;;;6.80;99.90;;;;;;5038674;28;20633;-80
2021/11/04 01:09:21;;;;;;;1.60;1.60;;;6.80;99.90;;;;;;5039714;28;20223;-81
2021/11/04 01:11:48;;;;;;;1.90;1.80;;;6.80;99.90;;;;;;5040179;28;20223;-81
2021/11/04 01:14:16;;;;;;;2.00;1.90;;;6.80;99.90;;;;;;5034438;28;20231;-79
2021/11/04 01:16:44;;;;;;;2.00;1.90;;;6.80;99.90;;;;;;5036709;28;20230;-80
2021/11/04 01:19:12;;;;;;;2.05;1.95;;;6.70;99.90;;;;;;5043495;28;20227;-81
2021/11/04 01:21:42;;;;;;;2.10;2.00;;;6.70;99.90;;;;;;5039681;28;20240;-80
2021/11/04 01:24:09;;;;;;;1.90;1.85;;;6.60;99.90;;;;;;5044556;28;20302;-79
2021/11/04 01:26:36;;;;;;;1.73;1.73;;;6.50;99.90;;;;;;5047463;28;20611;-78
2021/11/04 01:29:04;;;;;;;2.00;1.90;;;6.50;99.90;;;;;;5040856;28;20226;-79
2021/11/04 01:31:31;;;;;;;1.83;1.80;;;6.60;99.90;;;;;;5042166;28;20234;-80
2021/11/04 01:33:58;;;;;;;1.85;1.75;;;6.60;99.90;;;;;;5042640;28;20277;-81
2021/11/04 01:36:25;;;;;;;1.75;1.75;;;6.70;99.90;;;;;;5041215;28;20580;-79
2021/11/04 01:38:53;;;;;;;1.70;1.70;;;6.70;99.90;;;;;;5045189;28;20234;-80
2021/11/04 01:41:21;;;;;;;1.80;1.70;;;6.70;99.90;;;;;;5042862;28;20779;-80
2021/11/04 01:43:48;;;;;;;3.13;1.70;;;6.70;99.90;;;;;;5042459;28;20226;-81
2021/11/04 01:46:19;;;;;;;2.00;1.88;;;6.60;99.90;;;;;;5043686;28;20237;-81
2021/11/04 01:48:46;;;;;;;1.90;1.80;;;6.60;99.90;;;;;;5041099;28;20231;-81
2021/11/04 01:51:13;;;;;;;1.80;1.70;;;6.50;99.90;;;;;;5041457;28;20234;-80
2021/11/04 01:53:40;;;;;;;2.38;2.28;;;6.40;99.90;;;;;;5042405;28;20226;-79
2021/11/04 01:56:09;;;;;;;2.20;2.10;;;6.40;99.90;;;;;;5039346;28;20224;-79
2021/11/04 01:58:36;;;;;;;2.20;2.10;;;6.30;99.90;;;;;;5044294;28;20280;-81
2021/11/04 02:01:04;;;;;;;2.15;2.05;;;6.30;99.90;;;;;;5039477;28;20238;-80
2021/11/04 02:03:34;;;;;;;28.10;3.95;;;6.30;99.90;;;;;;5042806;28;20250;-79
2021/11/04 02:06:09;;;;;;;169.75;11.07;;;6.30;99.90;;;;;;5040041;28;20228;-80
2021/11/04 02:08:45;;;;;;;155.75;8.77;;;6.20;99.90;;;;;;5042438;28;20242;-80
2021/11/04 02:11:15;;;;;;;153.27;12.18;;;6.20;99.90;;;;;;5037840;28;20574;-79
2021/11/04 02:13:53;;;;;;;3.88;2.40;;;6.20;99.90;;;;;;5041088;28;20724;-79
2021/11/04 02:16:23;;;;;;;2.60;2.40;;;6.10;99.90;;;;;;5041956;28;20732;-79
2021/11/04 02:19:04;;;;;;;2.50;2.40;;;6.10;99.90;;;;;;5042031;28;20226;-79
2021/11/04 02:21:36;;;;;;;2.30;2.20;;;6.10;99.90;;;;;;5042949;28;20237;-79
2021/11/04 02:24:12;;;;;;;2.25;2.15;;;6.10;99.90;;;;;;5041852;28;20230;-79
2021/11/04 02:26:42;;;;;;;2.80;2.45;;;6.20;99.90;;;;;;5047569;28;20241;-79
2021/11/04 02:29:09;;;;;;;2.40;2.30;;;6.20;99.90;;;;;;5039939;28;20227;-79
2021/11/04 02:31:37;;;;;;;2.53;2.42;;;6.20;99.90;;;;;;5044554;28;20673;-80
2021/11/04 02:34:04;;;;;;;228.18;11.27;;;6.20;99.90;;;;;;5042304;28;20230;-79
2021/11/04 02:36:33;;;;;;;35.13;6.32;;;6.20;99.90;;;;;;5043469;28;24959;-80
2021/11/04 02:39:00;;;;;;;85.35;8.98;;;6.10;99.90;;;;;;5043517;28;20219;-80
2021/11/04 02:41:31;;;;;;;158.75;13.98;;;6.10;99.90;;;;;;5042650;28;20242;-79
2021/11/04 02:44:00;;;;;;;27.52;3.67;;;6.00;99.90;;;;;;5042000;28;20247;-79
2021/11/04 02:46:28;;;;;;;41.47;5.15;;;6.00;99.90;;;;;;5043905;28;20231;-79
2021/11/04 02:48:55;;;;;;;3.47;2.70;;;6.00;99.90;;;;;;5041802;28;20219;-79
2021/11/04 02:51:23;;;;;;;2.33;2.22;;;6.10;99.90;;;;;;5040139;28;20234;-79
2021/11/04 02:53:50;;;;;;;2.80;2.60;;;6.10;99.90;;;;;;5047849;28;20230;-79
2021/11/04 02:56:18;;;;;;;2.75;2.65;;;6.10;99.90;;;;;;5045471;28;20234;-80
2021/11/04 02:58:45;;;;;;;2.70;2.60;;;6.20;99.90;;;;;;5041733;28;20227;-80
2021/11/04 03:01:13;;;;;;;2.60;2.50;;;6.30;99.90;;;;;;5043606;28;20218;-79
2021/11/04 03:03:40;;;;;;;2.70;2.60;;;6.30;99.90;;;;;;5042675;28;20222;-79
2021/11/04 03:06:08;;;;;;;2.78;2.67;;;6.30;99.90;;;;;;5044882;28;20218;-79
2021/11/04 03:08:35;;;;;;;2.40;2.30;;;6.30;99.90;;;;;;5038241;28;20297;-80
2021/11/04 03:11:02;;;;;;;2.20;2.10;;;6.40;99.90;;;;;;5039976;28;20611;-79
2021/11/04 03:13:29;;;;;;;2.83;2.67;;;6.40;99.90;;;;;;5043757;28;20242;-79
2021/11/04 03:15:58;;;;;;;2.50;2.40;;;6.30;99.90;;;;;;5044785;28;20253;-79
2021/11/04 03:18:28;;;;;;;2.60;2.50;;;6.30;99.90;;;;;;5042916;28;20218;-79
2021/11/04 03:20:57;;;;;;;2.50;2.40;;;6.30;99.90;;;;;;5042001;28;20227;-79
2021/11/04 03:23:24;;;;;;;2.35;2.25;;;6.30;99.90;;;;;;5040592;28;20309;-80
2021/11/04 03:25:52;;;;;;;3.08;2.88;;;6.30;99.90;;;;;;5041790;28;20238;-80
2021/11/04 03:28:20;;;;;;;3.08;2.88;;;6.30;99.90;;;;;;5042184;28;20227;-79
2021/11/04 03:30:48;;;;;;;3.42;2.78;;;6.30;99.90;;;;;;5039697;28;20225;-79
2021/11/04 03:33:16;;;;;;;2.30;2.20;;;6.30;99.90;;;;;;5040968;28;20708;-81
2021/11/04 03:35:45;;;;;;;2.88;2.67;;;6.30;99.90;;;;;;5042740;28;20597;-80
2021/11/04 03:38:14;;;;;;;4.20;2.50;;;6.30;99.90;;;;;;5041181;28;20699;-80
2021/11/04 03:40:42;;;;;;;46.53;4.43;;;6.20;99.90;;;;;;5042464;28;20287;-79
2021/11/04 03:43:10;;;;;;;2.90;2.80;;;6.10;99.90;;;;;;5043320;28;20219;-79
2021/11/04 03:45:38;;;;;;;2.35;2.25;;;6.10;99.90;;;;;;5040311;28;20604;-78
2021/11/04 03:48:06;;;;;;;2.20;2.10;;;6.10;99.90;;;;;;5023576;28;20226;-79
2021/11/04 03:50:36;;;;;;;2.33;2.22;;;6.20;99.90;;;;;;5049223;28;20230;-79
2021/11/04 03:53:05;;;;;;;2.35;2.25;;;6.20;99.90;;;;;;5044298;28;20750;-80
2021/11/04 03:55:34;;;;;;;1.70;1.70;;;6.10;99.90;;;;;;5040325;28;20293;-79
2021/11/04 03:58:02;;;;;;;1.80;1.80;;;6.10;99.90;;;;;;5041582;28;20222;-79
2021/11/04 04:00:29;;;;;;;1.90;1.80;;;6.10;99.90;;;;;;5039851;28;20234;-78
2021/11/04 04:02:56;;;;;;;7.45;1.92;;;6.10;99.90;;;;;;5040172;28;20223;-79
2021/11/04 04:05:29;;;;;;;1.67;1.67;;;6.00;99.90;;;;;;5039349;28;20222;-79
2021/11/04 04:07:56;;;;;;;2.35;2.25;;;6.00;99.90;;;;;;5041491;28;20215;-79
2021/11/04 04:10:26;;;;;;;1.90;1.90;;;6.00;99.90;;;;;;5039546;28;20993;-79
2021/11/04 04:12:53;;;;;;;69.55;6.07;;;6.10;99.90;;;;;;5044546;28;20225;-79
2021/11/04 04:15:20;;;;;;;6.25;2.28;;;6.10;99.90;;;;;;5042939;28;20238;-78
2021/11/04 04:17:47;;;;;;;2.30;2.20;;;6.10;99.90;;;;;;5039678;28;20216;-78
2021/11/04 04:20:14;;;;;;;2.53;2.42;;;6.10;99.90;;;;;;5040725;28;20226;-79
2021/11/04 04:22:41;;;;;;;7.13;2.22;;;6.10;99.90;;;;;;5042618;28;20234;-79
2021/11/04 04:25:09;;;;;;;107.63;5.43;;;6.00;99.90;;;;;;5040241;28;20676;-79
2021/11/04 04:27:37;;;;;;;30.08;3.20;;;5.90;99.90;;;;;;5038736;28;20234;-79
2021/11/04 04:30:05;;;;;;;24.05;3.28;;;5.90;99.90;;;;;;5041998;28;20242;-79
2021/11/04 04:32:32;;;;;;;2.38;2.28;;;5.80;99.90;;;;;;5040124;28;20237;-78
2021/11/04 04:34:59;;;;;;;16.83;3.42;;;5.70;99.90;;;;;;5038748;28;20222;-79
2021/11/04 04:37:27;;;;;;;14.07;2.75;;;5.70;99.90;;;;;;5040210;28;20236;-77
2021/11/04 04:39:54;;;;;;;2.40;2.20;;;5.60;99.90;;;;;;5039193;28;20238;-78
2021/11/04 04:42:21;;;;;;;2.30;2.20;;;5.50;99.90;;;;;;5038808;28;20234;-79
2021/11/04 04:44:51;;;;;;;2.42;2.28;;;5.50;99.90;;;;;;5040750;28;20230;-78
2021/11/04 04:47:18;;;;;;;2.97;2.83;;;5.50;99.90;;;;;;5037300;28;20226;-78
2021/11/04 04:49:45;;;;;;;2.58;2.17;;;5.50;99.90;;;;;;5036865;28;20226;-80
2021/11/04 04:52:12;;;;;;;1.90;1.80;;;5.50;99.90;;;;;;5040818;28;20227;-79
2021/11/04 04:54:39;;;;;;;1.95;1.85;;;5.60;99.90;;;;;;5040335;28;20218;-78
2021/11/04 04:57:06;;;;;;;2.25;2.15;;;5.50;99.90;;;;;;5046991;28;20225;-78
2021/11/04 04:59:34;;;;;;;2.25;2.15;;;5.50;99.90;;;;;;5041951;28;20227;-78
2021/11/04 05:02:02;;;;;;;2.30;2.20;;;5.50;99.90;;;;;;5044483;28;20238;-78
2021/11/04 05:04:29;;;;;;;2.40;2.30;;;5.50;99.90;;;;;;5040800;28;20724;-79
2021/11/04 05:06:56;;;;;;;1.90;1.80;;;5.40;99.90;;;;;;5038428;28;20222;-78
2021/11/04 05:09:23;;;;;;;1.60;1.60;;;5.40;99.90;;;;;;5040207;28;20243;-78
2021/11/04 05:11:50;;;;;;;1.90;1.80;;;5.50;99.90;;;;;;5042789;28;20223;-78
2021/11/04 05:14:17;;;;;;;1.95;1.90;;;5.50;99.90;;;;;;5037821;28;20223;-78
2021/11/04 05:16:44;;;;;;;1.92;1.90;;;5.60;99.90;;;;;;5043639;28;20227;-78
2021/11/04 05:19:13;;;;;;;2.00;1.90;;;5.70;99.90;;;;;;5040725;28;20222;-78
2021/11/04 05:21:41;;;;;;;1.75;1.65;;;5.70;99.90;;;;;;5043423;28;20283;-78
2021/11/04 05:24:08;;;;;;;1.80;1.70;;;5.70;99.90;;;;;;5039210;28;20218;-78
2021/11/04 05:26:36;;;;;;;1.75;1.65;;;5.70;99.90;;;;;;5043083;28;20222;-79
2021/11/04 05:29:03;;;;;;;1.90;1.80;;;5.80;99.90;;;;;;5041328;28;20226;-78
2021/11/04 05:31:31;;;;;;;1.77;1.70;;;5.90;99.90;;;;;;5040034;28;20219;-79
2021/11/04 05:33:58;;;;;;;1.70;1.70;;;6.00;99.90;;;;;;5041107;28;20215;-79
2021/11/04 05:36:27;;;;;;;2.20;2.08;;;6.00;99.90;;;;;;5039113;28;20589;-78
2021/11/04 05:38:55;;;;;;;1.63;1.63;;;6.00;99.90;;;;;;5044365;28;20234;-79
2021/11/04 05:41:22;;;;;;;1.85;1.75;;;6.00;99.90;;;;;;5042844;28;20222;-78
2021/11/04 05:43:49;;;;;;;1.70;1.70;;;6.00;99.90;;;;;;5041269;28;20226;-79
2021/11/04 05:46:17;;;;;;;2.10;2.00;;;5.90;99.90;;;;;;5044825;28;20230;-78
2021/11/04 05:48:44;;;;;;;2.17;2.08;;;5.90;99.90;;;;;;5043245;28;20234;-77
2021/11/04 05:51:11;;;;;;;2.00;1.90;;;5.90;99.90;;;;;;5040479;28;20227;-78
2021/11/04 05:53:40;;;;;;;2.20;2.10;;;6.00;99.90;;;;;;5041981;28;20241;-78
2021/11/04 05:56:07;;;;;;;2.17;2.08;;;6.00;99.90;;;;;;5039784;28;20238;-79
2021/11/04 05:58:34;;;;;;;2.03;1.92;;;6.00;99.90;;;;;;5041255;28;20222;-78
2021/11/04 06:01:01;;;;;;;1.75;1.75;;;6.10;99.90;;;;;;5042223;28;23097;-79
2021/11/04 06:03:28;;;;;;;2.10;2.00;;;6.10;99.90;;;;;;5043538;28;20226;-78
2021/11/04 06:05:55;;;;;;;1.70;1.70;;;6.10;99.90;;;;;;5043848;28;20244;-79
2021/11/04 06:08:22;;;;;;;1.50;1.50;;;6.00;99.90;;;;;;5038907;28;20696;-78
2021/11/04 06:10:51;;;;;;;1.73;1.73;;;6.10;99.90;;;;;;5039620;28;20226;-82
2021/11/04 06:13:18;;;;;;;1.77;1.67;;;6.10;99.90;;;;;;5043224;28;20224;-78
2021/11/04 06:15:45;;;;;;;1.80;1.70;;;6.10;99.90;;;;;;5038913;28;20234;-78
2021/11/04 06:18:12;;;;;;;1.83;1.73;;;6.00;99.90;;;;;;5041053;28;20222;-78
2021/11/04 06:20:40;;;;;;;2.22;2.13;;;6.00;99.90;;;;;;5040904;28;20230;-79
2021/11/04 06:23:07;;;;;;;2.28;2.17;;;6.00;99.90;;;;;;4997133;28;20227;-78
2021/11/04 06:25:34;;;;;;;1.83;1.83;;;6.00;99.90;;;;;;5035830;28;20231;-78
2021/11/04 06:28:02;;;;;;;2.22;2.13;;;6.00;99.90;;;;;;5041880;28;20235;-79
2021/11/04 06:30:29;;;;;;;2.05;1.95;;;6.00;99.90;;;;;;5039410;28;20230;-78
2021/11/04 06:32:56;;;;;;;2.00;1.90;;;6.00;99.90;;;;;;5042154;28;20222;-79
2021/11/04 06:35:23;;;;;;;2.20;2.10;;;6.10;99.90;;;;;;5042988;28;20226;-79
2021/11/04 06:37:50;;;;;;;1.58;1.58;;;6.10;99.90;;;;;;5040320;28;20227;-79
2021/11/04 06:40:24;;;;;;;1.65;1.65;;;6.20;99.90;;;;;;5036846;28;20250;-79
2021/11/04 06:42:51;;;;;;;1.73;1.73;;;6.20;99.90;;;;;;5032590;28;20230;-79
2021/11/04 06:45:19;;;;;;;2.03;1.92;;;6.20;99.90;;;;;;5037810;28;21660;-80
2021/11/04 06:47:50;;;;;;;1.90;1.80;;;6.30;99.90;;;;;;5041770;28;20222;-80
2021/11/04 06:50:19;;;;;;;1.90;1.80;;;6.30;99.90;;;;;;5037327;28;20726;-81
2021/11/04 06:52:50;;;;;;;3.30;3.10;;;6.30;99.90;;;;;;5037349;28;20293;-83
2021/11/04 06:55:18;;;;;;;4.82;4.43;;;6.40;99.90;;;;;;5035593;28;20325;-83
2021/11/04 06:57:50;;;;;;;3.50;3.30;;;6.40;99.90;;;;;;5038143;28;20246;-80
2021/11/04 07:00:19;;;;;;;3.47;3.28;;;6.40;99.90;;;;;;5032758;28;20604;-80
2021/11/04 07:02:52;;;;;;;2.90;2.70;;;6.40;99.90;;;;;;5034595;28;20223;-81
2021/11/04 07:05:19;;;;;;;2.45;2.30;;;6.40;99.90;;;;;;5036120;28;20229;-84
2021/11/04 07:07:50;;;;;;;2.30;2.20;;;6.40;99.90;;;;;;5041487;28;20229;-84
2021/11/04 07:10:19;;;;;;;2.35;2.25;;;6.40;99.90;;;;;;5035031;28;20234;-81
2021/11/04 07:12:48;;;;;;;2.50;2.40;;;6.40;99.90;;;;;;5035086;28;20310;-80
2021/11/04 07:15:16;;;;;;;2.20;2.10;;;6.40;99.90;;;;;;5035757;28;20241;-81
2021/11/04 07:17:45;;;;;;;2.45;2.35;;;6.40;99.90;;;;;;5037514;28;20226;-81
2021/11/04 07:20:15;;;;;;;2.30;2.20;;;6.50;99.90;;;;;;5032901;28;20222;-80
2021/11/04 07:22:50;;;;;;;2.17;2.08;;;6.50;99.90;;;;;;5036777;28;20226;-79
2021/11/04 07:25:19;;;;;;;2.38;2.28;;;6.50;99.90;;;;;;5030772;28;20233;-85
2021/11/04 07:27:57;;;;;;;1.83;1.73;;;6.50;99.90;;;;;;5034354;28;20254;-81
2021/11/04 07:30:25;;;;;;;2.20;2.10;;;6.50;99.90;;;;;;5035101;28;20234;-82
2021/11/04 07:32:55;;;;;;;2.00;1.90;;;6.50;99.90;;;;;;5037472;28;20223;-82
2021/11/04 07:35:25;;;;;;;2.03;1.90;;;6.50;99.90;;;;;;5038342;28;20226;-80
2021/11/04 07:37:52;;;;;;;2.15;2.05;;;6.50;99.90;;;;;;5038069;28;20234;-81
2021/11/04 07:40:22;;;;;;;2.28;2.17;;;6.50;99.90;;;;;;5034141;28;20234;-81
2021/11/04 07:42:49;;;;;;;1.95;1.85;;;6.40;99.90;;;;;;5037162;28;20223;-79
2021/11/04 07:45:17;;;;;;;2.20;2.10;;;6.40;99.90;;;;;;5035202;28;20716;-78
2021/11/04 07:47:46;;;;;;;2.75;2.63;;;6.40;99.90;;;;;;5039811;28;20241;-80
2021/11/04 07:50:18;;;;;;;4.00;3.70;;;6.40;99.90;;;;;;5034640;28;20256;-77
2021/11/04 07:52:46;;;;;;;3.72;3.38;;;6.40;99.90;;;;;;5038370;28;20697;-79
2021/11/04 07:55:13;;;;;;;2.92;2.72;;;6.50;99.90;;;;;;5007424;28;20435;-78
2021/11/04 07:57:41;;;;;;;2.83;2.67;;;6.50;99.90;;;;;;5033639;28;20223;-79
2021/11/04 08:00:10;;;;;;;2.60;2.50;;;6.50;99.90;;;;;;5032759;28;20229;-77
2021/11/04 08:02:40;;;;;;;2.40;2.30;;;6.60;99.90;;;;;;5035623;28;20587;-77
2021/11/04 08:05:08;;;;;;;2.20;1.95;;;6.50;99.90;;;;;;5037381;28;20357;-79
2021/11/04 08:07:38;;;;;;;2.20;2.10;;;6.50;99.90;;;;;;5031275;28;20239;-77
2021/11/04 08:10:06;;;;;;;1.90;1.80;;;6.50;99.90;;;;;;5036639;28;20257;-78
2021/11/04 08:12:35;;;;;;;1.75;1.73;;;6.50;99.90;;;;;;5035588;28;20870;-79
2021/11/04 08:15:02;;;;;;;1.42;1.42;;;6.50;99.90;;;;;;5036765;28;20237;-77
2021/11/04 08:17:31;;;;;;;2.53;2.30;;;6.50;99.90;;;;;;5035385;28;20593;-80
2021/11/04 08:19:58;;;;;;;3.45;2.38;;;6.40;99.90;;;;;;5035225;28;20511;-78
2021/11/04 08:22:26;;;;;;;2.70;2.40;;;6.40;99.90;;;;;;5033829;28;20231;-77
2021/11/04 08:24:54;;;;;;;12.65;2.70;;;6.40;99.90;;;;;;5032429;28;20815;-78
2021/11/04 08:27:21;;;;;;;2.67;2.47;;;6.40;99.90;;;;;;5038888;28;20474;-77
2021/11/04 08:29:48;;;;;;;2.63;2.53;;;6.30;99.90;;;;;;5035974;28;20215;-76
2021/11/04 08:32:16;;;;;;;2.55;2.45;;;6.30;99.90;;;;;;5039443;28;20585;-76
2021/11/04 08:34:43;;;;;;;2.70;2.53;;;6.20;99.90;;;;;;5039001;28;20230;-76
2021/11/04 08:37:12;;;;;;;2.50;2.40;;;6.20;99.90;;;;;;5043201;28;20701;-76
2021/11/04 08:39:39;;;;;;;1.95;1.85;;;6.30;99.90;;;;;;5035955;28;20277;-77
2021/11/04 08:42:09;;;;;;;2.13;2.03;;;6.30;99.90;;;;;;5040134;28;20229;-76
2021/11/04 08:44:36;;;;;;;2.47;2.38;;;6.40;99.90;;;;;;5039127;28;20226;-77
2021/11/04 08:47:06;;;;;;;2.35;2.25;;;6.40;99.90;;;;;;5042492;28;20235;-78
2021/11/04 08:49:34;;;;;;;2.50;2.40;;;6.50;99.90;;;;;;5037479;28;20226;-81
2021/11/04 08:52:01;;;;;;;2.42;2.33;;;6.50;99.90;;;;;;5039770;28;20284;-77
2021/11/04 08:54:29;;;;;;;2.13;2.03;;;6.50;99.90;;;;;;5035365;28;20772;-78
2021/11/04 08:56:56;;;;;;;2.15;2.05;;;6.50;99.90;;;;;;5036292;28;20635;-80
2021/11/04 08:59:25;;;;;;;2.17;2.08;;;6.50;99.90;;;;;;5040292;28;20231;-77
2021/11/04 09:01:52;;;;;;;2.50;2.30;;;6.50;99.90;;;;;;5037345;28;20225;-80
2021/11/04 09:04:19;;;;;;;2.53;2.40;;;6.50;99.90;;;;;;5039710;28;20593;-77
2021/11/04 09:06:48;;;;;;;2.30;2.20;;;6.50;99.90;;;;;;5041285;28;20245;-77
2021/11/04 09:09:15;;;;;;;2.47;2.30;;;6.50;99.90;;;;;;5037219;28;20227;-77
2021/11/04 09:11:43;;;;;;;2.60;2.40;;;6.50;99.90;;;;;;5038353;28;20437;-77
2021/11/04 09:14:10;;;;;;;2.35;2.25;;;6.60;99.90;;;;;;5040313;28;20226;-79
2021/11/04 09:16:38;;;;;;;2.25;2.15;;;6.60;99.90;;;;;;5037737;28;20227;-77
2021/11/04 09:19:06;;;;;;;2.35;2.25;;;6.50;99.90;;;;;;5040407;28;20231;-77
2021/11/04 09:21:33;;;;;;;2.75;2.55;;;6.50;99.90;;;;;;5029763;28;20237;-77
2021/11/04 09:24:00;;;;;;;2.45;2.35;;;6.40;99.90;;;;;;5036809;28;20219;-77
2021/11/04 09:26:27;;;;;;;2.17;2.08;;;6.40;99.90;;;;;;5042461;28;20795;-77
2021/11/04 09:28:54;;;;;;;2.00;1.90;;;6.40;99.90;;;;;;5040964;28;20582;-77
2021/11/04 09:31:21;;;;;;;2.00;1.90;;;6.50;99.90;;;;;;5038502;28;20226;-77
2021/11/04 09:33:50;;;;;;;1.88;1.77;;;6.50;99.90;;;;;;5041475;28;20531;-77
2021/11/04 09:36:17;;;;;;;2.10;2.00;;;6.60;99.90;;;;;;5038587;28;20231;-79
2021/11/04 09:38:44;;;;;;;2.30;2.20;;;6.70;99.90;;;;;;5037421;28;20231;-80
2021/11/04 09:41:13;;;;;;;1.98;1.88;;;6.80;99.90;;;;;;5036088;28;20460;-79
2021/11/04 09:43:40;;;;;;;1.80;1.70;;;6.90;99.90;;;;;;5035819;28;20219;-80
2021/11/04 09:46:08;;;;;;;1.92;1.83;;;6.90;99.90;;;;;;5040699;28;20214;-81
2021/11/04 09:48:36;;;;;;;1.80;1.70;;;6.90;99.90;;;;;;5035445;28;20668;-80
2021/11/04 09:51:06;;;;;;;2.33;2.22;;;7.00;99.90;;;;;;5034942;28;20721;-78
2021/11/04 09:53:33;;;;;;;2.10;2.00;;;7.10;99.90;;;;;;5033908;28;20705;-78
2021/11/04 09:56:02;;;;;;;1.90;1.80;;;7.10;99.90;;;;;;5032138;28;20254;-77
2021/11/04 09:58:30;;;;;;;2.15;2.05;;;7.10;99.90;;;;;;5036947;28;20225;-78
2021/11/04 10:01:07;;;;;;;2.13;2.03;;;7.10;99.90;;;;;;5028476;28;20601;-79
2021/11/04 10:03:35;;;;;;;2.00;1.90;;;7.10;99.90;;;;;;5036859;28;20242;-79
2021/11/04 10:06:06;;;;;;;1.90;1.80;;;7.20;99.90;;;;;;5015243;28;20237;-79
2021/11/04 10:08:35;;;;;;;1.60;1.60;;;7.30;99.90;;;;;;5029628;28;20711;-77
2021/11/04 10:11:07;;;;;;;1.95;1.85;;;7.40;99.90;;;;;;5026174;28;20235;-80
2021/11/04 10:13:34;;;;;;;2.10;2.00;;;7.50;99.90;;;;;;5026643;28;20294;-79
2021/11/04 10:16:02;;;;;;;1.95;1.85;;;7.50;99.90;;;;;;5028149;28;20238;-81
2021/11/04 10:18:29;;;;;;;2.20;2.10;;;7.50;99.90;;;;;;5032321;28;20245;-78
2021/11/04 10:20:58;;;;;;;2.38;2.17;;;7.40;99.90;;;;;;5029612;28;20583;-77
2021/11/04 10:23:28;;;;;;;1.95;1.85;;;7.40;99.90;;;;;;5030361;28;20223;-78
2021/11/04 10:26:07;;;;;;;2.10;2.00;;;7.50;99.90;;;;;;5025586;28;20577;-79
2021/11/04 10:28:36;;;;;;;2.03;1.92;;;7.50;99.90;;;;;;5033060;28;20495;-78
2021/11/04 10:31:03;;;;;;;2.05;1.95;;;7.60;99.90;;;;;;5033906;28;20230;-80
2021/11/04 10:33:32;;;;;;;2.15;2.05;;;7.70;99.90;;;;;;5030246;28;20230;-78
2021/11/04 10:36:02;;;;;;;1.83;1.80;;;7.80;99.90;;;;;;5032437;28;20222;-79
2021/11/04 10:38:33;;;;;;;2.15;2.05;;;7.90;99.90;;;;;;5026572;28;20336;-79
2021/11/04 10:41:01;;;;;;;2.78;2.58;;;8.00;99.90;;;;;;5029008;28;20600;-78
2021/11/04 10:43:28;;;;;;;2.40;2.30;;;8.00;99.90;;;;;;5030435;28;20238;-80
2021/11/04 10:46:07;;;;;;;2.28;2.17;;;8.00;99.90;;;;;;5027029;28;20231;-77
2021/11/04 10:48:39;;;;;;;2.35;2.25;;;7.90;99.90;;;;;;5024950;28;20601;-78
2021/11/04 10:51:07;;;;;;;2.30;2.20;;;7.90;99.90;;;;;;5037077;28;20763;-82
2021/11/04 10:53:36;;;;;;;2.00;1.90;;;7.90;99.90;;;;;;5034974;28;20226;-79
2021/11/04 10:56:27;;;;;;;1.83;1.73;;;7.90;99.90;;;;;;5037800;28;20234;-78
2021/11/04 10:58:56;;;;;;;1.90;1.80;;;8.00;99.90;;;;;;5025573;28;20234;-80
2021/11/04 11:01:32;;;;;;;2.00;1.90;;;8.00;99.90;;;;;;5033296;28;20619;-81
2021/11/04 11:04:02;;;;;;;2.08;1.98;;;8.10;99.90;;;;;;5027390;28;20237;-78
2021/11/04 11:06:30;;;;;;;1.90;1.80;;;8.30;99.90;;;;;;5028675;28;20331;-83
2021/11/04 11:09:00;;;;;;;1.98;1.88;;;8.40;99.90;;;;;;5029916;28;20229;-79
2021/11/04 11:11:28;;;;;;;2.22;2.13;;;8.50;99.90;;;;;;5034319;28;20305;-79
2021/11/04 11:13:55;;;;;;;2.20;2.10;;;8.60;99.90;;;;;;5032268;28;20574;-79
2021/11/04 11:16:23;;;;;;;2.40;2.30;;;8.70;99.90;;;;;;5029493;28;20238;-79
2021/11/04 11:18:50;;;;;;;2.28;2.17;;;8.70;99.90;;;;;;5026319;28;20231;-86
2021/11/04 11:21:17;;;;;;;2.20;2.10;;;8.80;99.90;;;;;;5031504;28;20223;-80
2021/11/04 11:23:44;;;;;;;2.45;2.35;;;8.70;99.90;;;;;;5033483;28;20233;-82
2021/11/04 11:26:16;;;;;;;3.80;3.50;;;8.60;99.90;;;;;;5030074;28;20226;-81
2021/11/04 11:28:45;;;;;;;4.20;3.90;;;8.50;99.90;;;;;;5040323;28;20223;-78
2021/11/04 11:31:20;;;;;;;3.80;3.50;;;8.40;99.90;;;;;;5030145;28;20227;-79
2021/11/04 11:33:50;;;;;;;3.20;3.00;;;8.40;99.90;;;;;;5031092;28;20254;-79
2021/11/04 11:36:19;;;;;;;3.17;2.97;;;8.30;99.90;;;;;;5034152;28;20231;-82
2021/11/04 11:39:13;;;;;;;2.95;2.78;;;8.30;99.90;;;;;;5031236;28;20242;-80
2021/11/04 11:42:09;;;;;;;2.72;2.53;;;8.30;99.90;;;;;;5021113;28;20229;-81
2021/11/04 11:44:40;;;;;;;2.60;2.47;;;8.20;99.90;;;;;;5031644;28;20690;-87
2021/11/04 11:47:09;;;;;;;2.80;2.63;;;8.30;99.90;;;;;;5032965;28;20227;-80
2021/11/04 11:49:38;;;;;;;2.35;2.25;;;8.30;99.90;;;;;;5026408;28;20233;-83
2021/11/04 11:52:07;;;;;;;2.38;2.28;;;8.30;99.90;;;;;;5034458;28;20296;-80
2021/11/04 11:55:05;;;;;;;3.35;3.15;;;8.20;99.90;;;;;;5034466;28;20686;-79
2021/11/04 11:57:34;;;;;;;4.75;4.10;;;8.30;99.90;;;;;;5033079;28;20245;-82
2021/11/04 12:00:01;;;;;;;4.30;3.72;;;8.30;99.90;;;;;;5032346;28;20758;-84
2021/11/04 12:02:52;;;;;;;3.97;3.67;;;8.30;99.90;;;;;;5032556;28;20300;-80
2021/11/04 12:05:39;;;;;;;3.28;3.08;;;8.30;99.90;;;;;;5035034;28;21955;-84
2021/11/04 12:08:34;;;;;;;3.28;2.97;;;8.30;99.90;;;;;;5037731;28;20872;-85
2021/11/04 12:11:02;;;;;;;3.03;2.83;;;8.40;99.90;;;;;;5033709;28;20217;-83
2021/11/04 12:13:39;;;;;;;2.42;2.33;;;8.40;99.90;;;;;;5033491;28;20231;-83
2021/11/04 12:16:15;;;;;;;2.92;2.72;;;8.40;99.90;;;;;;5036793;28;20227;-82
2021/11/04 12:18:55;;;;;;;2.80;2.60;;;8.40;99.90;;;;;;5027471;28;20225;-82
2021/11/04 12:21:26;;;;;;;2.90;2.70;;;8.40;99.90;;;;;;5028995;28;20226;-82
2021/11/04 12:23:57;;;;;;;3.17;2.90;;;8.30;99.90;;;;;;5029064;28;20299;-79
2021/11/04 12:26:32;;;;;;;2.50;2.40;;;8.30;99.90;;;;;;5035501;28;20235;-82
2021/11/04 12:29:02;;;;;;;2.53;2.33;;;8.10;99.90;;;;;;5035077;28;20715;-82
2021/11/04 12:31:30;;;;;;;3.08;2.88;;;8.00;99.90;;;;;;5034482;28;20229;-79
2021/11/04 12:33:58;;;;;;;2.67;2.47;;;8.00;99.90;;;;;;5030653;28;20226;-83
2021/11/04 12:36:30;;;;;;;3.20;2.95;;;7.90;99.90;;;;;;5034232;28;21873;-84
2021/11/04 12:38:57;;;;;;;3.17;2.97;;;7.90;99.90;;;;;;5034914;28;20223;-79
2021/11/04 12:41:24;;;;;;;3.08;2.80;;;7.90;99.90;;;;;;5033460;28;20235;-82
2021/11/04 12:43:52;;;;;;;2.65;2.45;;;7.90;99.90;;;;;;5031314;28;20613;-80
2021/11/04 12:46:22;;;;;;;2.55;2.42;;;7.80;99.90;;;;;;5030066;28;20226;-83
2021/11/04 12:48:51;;;;;;;2.97;2.78;;;7.70;99.90;;;;;;5033752;28;20250;-82
2021/11/04 12:51:19;;;;;;;3.33;3.13;;;7.50;99.90;;;;;;5029850;28;20913;-83
2021/11/04 12:53:51;;;;;;;2.90;2.72;;;7.50;99.90;;;;;;5034011;28;20238;-82
2021/11/04 12:56:18;;;;;;;2.55;2.45;;;7.40;99.90;;;;;;5030839;28;20214;-79
2021/11/04 12:58:53;;;;;;;2.42;2.33;;;7.40;99.90;;;;;;5029985;28;20239;-83
2021/11/04 13:01:22;;;;;;;2.40;2.30;;;7.40;99.90;;;;;;5030391;28;20226;-84
2021/11/04 13:03:49;;;;;;;2.35;2.25;;;7.50;99.90;;;;;;5033673;28;20258;-82